createdAt,value
2022-12-28T00:05:27.505Z,101506.50
2022-12-28T00:15:29.320Z,101501.34
2022-12-28T00:25:31.368Z,101504.50
2022-12-28T00:35:33.107Z,101515.41
2022-12-28T00:45:35.996Z,101515.31
2022-12-28T00:55:38.849Z,101530.72
2022-12-28T01:05:40.546Z,101530.66
2022-12-28T01:15:42.385Z,101543.72
2022-12-28T01:25:44.104Z,101545.94
2022-12-28T01:35:45.979Z,101534.88
2022-12-28T01:45:53.135Z,101522.59
2022-12-28T01:55:55.007Z,101506.59
2022-12-28T02:06:03.083Z,101503.78
2022-12-28T02:16:05.891Z,101502.91
2022-12-28T02:26:29.137Z,101531.94
2022-12-28T02:36:38.789Z,101527.28
2022-12-28T02:47:02.317Z,101514.13
2022-12-28T02:57:31.066Z,101518.91
2022-12-28T03:08:06.032Z,101523.66
2022-12-28T03:18:28.542Z,101510.03
2022-12-28T03:28:51.758Z,101490.03
2022-12-28T03:39:34.966Z,101491.78
2022-12-28T03:49:37.602Z,101477.78
2022-12-28T03:59:39.330Z,101469.84
2022-12-28T04:09:40.980Z,101464.69
2022-12-28T04:19:46.011Z,101442.88
2022-12-28T04:29:47.842Z,101449.31
2022-12-28T04:39:55.534Z,101431.41
2022-12-28T04:49:58.843Z,101445.22
2022-12-28T05:00:02.040Z,101456.09
2022-12-28T05:10:04.036Z,101453.94
2022-12-28T05:20:20.042Z,101456.47
2022-12-28T05:30:21.845Z,101456.03
2022-12-28T05:40:23.565Z,101446.38
2022-12-28T05:50:25.791Z,101437.81
2022-12-28T06:00:28.730Z,101462.16
2022-12-28T06:10:31.511Z,101464.97
2022-12-28T06:20:34.202Z,101463.44
2022-12-28T06:30:36.275Z,101465.06
2022-12-28T06:41:11.232Z,101472.28
2022-12-28T06:51:02.580Z,101478.06
2022-12-28T07:01:35.718Z,101480.81
2022-12-28T07:11:40.253Z,101478.41
2022-12-28T07:21:42.509Z,101486.34
2022-12-28T07:31:46.083Z,101465.06
2022-12-28T07:41:49.458Z,101467.38
2022-12-28T07:51:51.122Z,101476.00
2022-12-28T08:01:52.905Z,101476.03
2022-12-28T08:11:56.868Z,101481.19
2022-12-28T08:22:02.733Z,101469.47
2022-12-28T08:32:04.705Z,101474.44
2022-12-28T08:42:06.482Z,101466.19
2022-12-28T08:52:12.600Z,101465.91
2022-12-28T09:02:15.402Z,101462.94
2022-12-28T09:12:17.369Z,101464.72
2022-12-28T09:22:19.041Z,101446.38
2022-12-28T09:32:21.036Z,101431.44
2022-12-28T09:42:29.224Z,101430.34
2022-12-28T09:52:55.730Z,101405.72
2022-12-28T10:03:12.169Z,101379.66
2022-12-28T10:13:53.637Z,101352.16
2022-12-28T10:24:29.258Z,101354.63
2022-12-28T10:34:22.757Z,101341.97
2022-12-28T10:44:39.249Z,101354.97
2022-12-28T10:54:48.969Z,101355.84
2022-12-28T11:24:52.091Z,101335.59
2022-12-28T11:34:56.819Z,101319.66
2022-12-28T11:44:59.618Z,101309.13
2022-12-28T11:55:23.837Z,101280.75
2022-12-28T12:05:37.396Z,101248.66
2022-12-28T12:16:07.404Z,101237.44
2022-12-28T12:26:37.986Z,101233.78
2022-12-28T12:37:10.315Z,101227.19
2022-12-28T12:47:40.317Z,101217.81
2022-12-28T12:58:05.351Z,101191.22
2022-12-28T13:08:07.238Z,101187.53
2022-12-28T13:28:51.604Z,101162.59
2022-12-28T13:39:21.273Z,101174.00
2022-12-28T13:49:24.204Z,101144.91
2022-12-28T13:59:27.835Z,101122.75
2022-12-28T14:09:41.274Z,101127.19
2022-12-28T14:19:43.731Z,101141.19
2022-12-28T14:29:46.884Z,101129.66
2022-12-28T14:39:50.007Z,101125.56
2022-12-28T14:49:59.205Z,101096.75
2022-12-28T15:00:26.002Z,101106.66
2022-12-28T15:10:38.508Z,101128.56
2022-12-28T15:20:40.366Z,101134.44
2022-12-28T15:30:49.195Z,101137.22
2022-12-28T15:40:55.093Z,101131.16
2022-12-28T15:50:56.749Z,101116.38
2022-12-28T16:01:01.635Z,101124.50
2022-12-28T16:11:10.046Z,101126.44
2022-12-28T16:21:12.163Z,101106.28
2022-12-28T16:31:28.781Z,101123.81
2022-12-28T16:41:36.620Z,101112.66
2022-12-28T16:51:41.516Z,101110.34
2022-12-28T17:01:44.207Z,101117.41
2022-12-28T17:11:50.348Z,101111.94
2022-12-28T17:21:55.790Z,101098.44
2022-12-28T17:31:57.751Z,101097.69
2022-12-28T17:42:03.108Z,101095.00
2022-12-28T17:52:06.386Z,101079.31
2022-12-28T18:02:13.134Z,101076.28
2022-12-28T18:12:17.912Z,101062.88
2022-12-28T18:22:23.447Z,101053.91
2022-12-28T18:32:26.576Z,101040.50
2022-12-28T18:42:28.883Z,101052.09
2022-12-28T19:02:04.696Z,101049.25
2022-12-28T19:11:48.059Z,101065.91
2022-12-28T19:21:56.545Z,101065.88
2022-12-28T19:32:02.189Z,101067.28
2022-12-28T19:42:04.368Z,101063.44
2022-12-28T19:52:08.418Z,101059.25
2022-12-28T20:02:12.611Z,101057.81
2022-12-28T20:12:16.106Z,101049.34
2022-12-28T20:22:18.789Z,101046.56
2022-12-28T20:32:21.307Z,101037.13
2022-12-28T20:42:44.143Z,101020.84
2022-12-28T20:52:55.775Z,101020.16
2022-12-28T21:02:57.962Z,101021.88
2022-12-28T21:13:00.046Z,101027.78
2022-12-28T21:23:03.001Z,101019.97
2022-12-28T21:33:08.964Z,101028.69
2022-12-28T21:43:13.096Z,101019.16
2022-12-28T21:53:22.278Z,101007.44
2022-12-28T22:03:44.015Z,100986.31
2022-12-28T22:13:46.147Z,100977.06
2022-12-28T22:23:49.133Z,100977.22
2022-12-28T22:33:55.177Z,100977.53
2022-12-28T22:43:57.833Z,100953.31
2022-12-28T22:54:02.869Z,100940.00
2022-12-28T23:04:05.963Z,100928.44
2022-12-28T23:14:42.909Z,100923.06
2022-12-28T23:25:04.127Z,100902.72
2022-12-28T23:35:06.853Z,100894.94
2022-12-28T23:45:12.185Z,100881.09
2022-12-28T23:55:18.091Z,100885.09
